Date,TemperatureHighF,TemperatureAvgF,TemperatureLowF,DewpointHighF,DewpointAvgF,DewpointLowF,HumidityHigh,HumidityAvg,HumidityLow,PressureMaxIn,PressureMinIn,WindSpeedMaxMPH,WindSpeedAvgMPH,GustSpeedMaxMPH,PrecipitationSumIn
2013-1-1,4.3,4.3,4.3,-0.7,-0.7,-0.7,79,79,79,30.00,30.00,11,3,12,0.00
2013-1-2,4.3,4.3,4.3,-0.7,-0.7,-0.7,79,79,79,30.00,30.00,5,1,5,0.00
2013-1-3,4.3,4.3,4.3,-0.7,-0.7,-0.7,79,79,79,30.00,30.00,3,0,4,0.00
2013-1-4,4.3,4.3,4.3,-0.7,-0.7,-0.7,79,79,79,30.00,30.00,0,0,0,0.00
2013-1-5,48.0,30.3,4.3,30.5,22.7,-0.7,94,75,41,30.24,30.00,5,2,6,0.03
2013-1-6,45.5,27.1,16.7,27.4,21.4,14.9,96,80,43,30.18,30.04,6,1,6,0.00
2013-1-7,49.3,26.2,10.4,31.9,22.0,8.6,98,86,48,30.30,30.15,4,1,4,0.00
2013-1-8,54.5,31.2,23.2,42.4,28.0,22.7,98,89,49,30.30,30.18,6,1,7,0.00
2013-1-9,50.4,34.7,21.9,34.5,26.4,19.7,98,77,39,30.21,29.77,18,3,26,0.09
2013-1-10,34.2,23.9,14.5,23.7,19.3,12.4,95,83,56,30.01,29.83,4,0,5,0.44
2013-1-11,34.5,17.8,6.1,23.7,13.2,3.5,93,83,56,30.12,29.98,0,0,1,0.00
2013-1-12,33.3,8.9,-4.4,15.6,2.0,-7.4,89,75,45,30.18,30.04,0,0,1,0.00
2013-1-13,30.6,5.7,-9.8,9.2,-5.0,-14.9,71,60,35,30.24,30.12,11,2,15,0.00
2013-1-14,34.7,11.6,-2.2,13.1,-1.0,-12.6,72,56,35,30.39,30.21,8,2,11,0.00
2013-1-15,42.6,18.6,3.7,27.4,10.7,-2.9,95,72,44,30.57,30.39,6,1,6,0.00
2013-1-16,52.0,23.0,8.6,26.2,14.9,6.5,93,75,36,30.57,30.39,7,2,9,0.00
2013-1-17,44.8,20.2,7.5,23.5,14.2,5.7,93,80,40,30.48,30.33,5,2,6,0.00
2013-1-18,42.4,18.5,5.4,22.5,12.5,3.6,93,80,43,30.42,30.27,5,1,6,0.04
2013-1-19,41.9,18.7,4.6,22.8,12.4,2.4,92,79,43,30.42,30.30,4,2,4,0.00
2013-1-20,46.9,19.7,4.1,23.9,12.0,2.3,92,76,37,30.42,30.30,7,2,9,0.00
2013-1-21,47.5,22.9,8.8,27.4,15.6,6.9,92,77,39,30.39,30.24,5,2,5,0.00
2013-1-22,50.2,26.9,12.0,28.9,19.3,10.5,94,76,39,30.27,30.09,3,1,3,0.00
2013-1-23,56.1,35.6,22.6,31.1,22.1,-9.7,91,66,6,30.15,30.04,13,2,18,0.00
2013-1-24,43.2,35.7,33.1,41.6,34.7,30.8,98,96,90,30.24,30.15,2,1,3,0.16
2013-1-25,49.6,37.4,33.1,45.3,36.2,32.6,98,96,79,30.21,30.04,4,2,7,0.00
2013-1-26,50.7,37.7,31.5,41.0,29.6,20.1,98,75,48,30.09,29.83,19,5,26,0.05
2013-1-27,42.8,28.9,15.4,31.1,22.9,13.4,98,80,50,30.06,29.86,6,1,7,0.00
2013-1-28,43.5,24.5,10.9,27.0,18.4,9.3,97,80,45,30.15,30.04,4,1,5,0.04
2013-1-29,51.6,30.6,19.2,36.8,26.0,18.6,98,85,49,30.36,30.15,4,1,4,0.08
2013-1-30,57.0,31.5,19.4,40.3,24.9,18.9,98,81,31,30.39,30.30,6,2,7,0.04
2013-1-31,57.0,31.1,19.2,36.3,24.7,18.7,98,81,41,30.36,30.15,4,1,4,0.00
2013-2-1,57.7,30.2,16.7,31.5,21.9,15.8,97,76,30,30.30,30.18,4,1,4,0.00
2013-2-2,52.5,32.5,21.7,34.6,26.4,21.2,98,81,44,30.33,30.21,4,1,4,0.00
2013-2-3,56.8,31.5,18.9,32.9,23.4,18.0,98,77,26,30.27,30.15,9,1,10,0.00
2013-2-4,59.9,32.9,19.4,32.0,24.3,18.0,97,75,29,30.21,30.04,6,1,6,0.00
2013-2-5,54.0,33.8,20.1,29.9,24.3,19.3,98,73,38,30.09,29.92,23,3,32,0.00
2013-2-6,54.0,30.3,17.6,28.0,22.1,15.9,97,75,33,30.15,29.98,5,2,7,0.00
2013-2-7,41.5,30.9,20.8,31.3,21.8,15.6,96,70,52,30.04,29.86,25,4,29,0.00
2013-2-8,40.6,28.7,19.4,29.1,18.5,10.2,97,69,42,29.95,29.83,6,1,8,0.00
2013-2-9,48.7,25.4,11.3,23.6,14.8,7.4,92,67,33,30.06,29.92,9,2,11,0.00
2013-2-10,48.7,25.9,12.0,26.3,16.3,9.7,93,70,39,30.09,30.01,10,1,13,0.00
2013-2-11,49.5,27.3,13.6,24.3,16.7,10.5,90,68,34,30.24,30.09,8,2,10,0.00
2013-2-12,55.9,30.0,15.4,28.5,20.3,13.5,95,72,33,30.33,30.21,6,1,7,0.00
2013-2-13,57.2,32.4,18.0,31.2,23.3,16.3,96,74,35,30.36,30.21,8,2,11,0.00
2013-2-14,60.4,35.0,20.5,36.4,26.2,19.5,98,75,37,30.36,30.27,9,2,10,0.00
2013-2-15,61.5,34.7,22.8,33.7,26.7,22.3,98,78,35,30.36,30.24,7,1,8,0.00
2013-2-16,59.5,33.3,19.2,32.1,22.6,-0.1,97,72,9,30.30,30.06,8,1,12,0.00
2013-2-17,57.2,32.6,19.0,30.7,23.3,17.6,98,73,36,30.06,29.92,5,1,6,0.00
2013-2-18,58.8,34.5,19.8,34.6,22.5,17.6,93,65,32,30.04,29.74,20,3,28,0.00
2013-2-19,37.6,30.1,21.2,30.6,23.1,16.8,94,76,52,29.77,29.59,17,2,23,0.00
2013-2-20,49.8,26.8,13.3,29.4,20.9,11.6,97,82,39,29.95,29.71,6,1,8,0.00
2013-2-21,46.8,28.2,17.8,31.6,21.1,16.1,98,79,38,30.12,29.92,10,2,12,0.00
2013-2-22,59.2,35.0,16.5,31.9,23.4,15.3,97,67,35,30.21,30.01,16,3,22,0.00
2013-2-23,48.2,34.3,22.1,28.0,18.6,10.1,83,54,29,30.18,29.89,26,3,35,0.00
2013-2-24,50.4,30.4,19.8,21.1,14.1,-8.0,79,54,12,30.24,30.15,8,3,11,0.00
2013-2-25,54.3,31.6,17.8,25.2,18.2,12.2,89,62,26,30.21,30.09,15,3,21,0.00
2013-2-26,50.4,30.3,16.7,21.6,11.3,-10.9,92,56,8,30.24,30.15,10,2,11,0.00
2013-2-27,61.2,33.3,14.4,26.8,12.6,-9.6,83,52,6,30.33,30.21,9,2,12,0.00
2013-2-28,65.8,38.3,24.4,40.5,28.2,19.7,96,70,37,30.45,30.30,6,1,10,0.00
2013-3-1,68.7,38.9,24.1,41.1,30.5,23.1,98,77,35,30.45,30.27,6,2,8,0.00
2013-3-2,65.1,40.9,27.0,41.2,29.7,25.9,98,71,27,30.33,30.09,17,3,20,0.00
2013-3-3,49.1,39.5,31.6,43.5,37.1,31.1,98,92,63,30.12,29.98,5,1,7,0.00
2013-3-4,59.2,39.6,31.1,40.0,33.2,30.4,98,82,38,30.12,29.95,9,2,12,0.00
2013-3-5,56.3,43.2,29.5,34.2,30.0,26.1,98,62,42,30.01,29.71,23,6,33,0.00
2013-3-6,38.1,33.5,31.3,32.9,32.0,29.7,98,94,76,29.77,29.71,14,2,22,0.00
2013-3-7,45.9,36.3,30.7,32.2,29.6,24.9,98,78,51,30.39,29.83,7,2,8,0.00
2013-3-8,50.2,35.7,28.4,33.6,29.4,24.3,98,81,39,29.98,29.80,9,2,11,0.00
2013-3-9,60.8,36.5,25.3,33.1,19.5,-9.6,98,66,6,30.36,29.98,7,1,8,0.00
2013-3-10,61.5,36.7,19.2,26.8,17.3,-9.5,96,59,5,30.39,30.24,9,2,13,0.00
2013-3-11,68.7,40.1,22.8,37.2,21.8,-11.2,91,61,4,30.30,30.12,7,2,8,0.00
2013-3-12,72.1,42.6,24.4,38.1,26.3,-9.5,98,68,4,30.24,30.09,6,2,6,0.00
2013-3-13,77.0,44.4,26.2,43.3,30.6,-12.7,98,70,3,30.24,30.15,12,2,15,0.00
2013-3-14,72.7,43.8,28.9,42.5,30.2,-12.0,98,69,3,30.24,30.15,17,3,23,0.00
2013-3-15,68.4,42.6,26.2,38.3,30.0,20.4,97,68,23,30.18,30.04,14,2,17,0.00
2013-3-16,70.3,42.8,24.6,38.8,28.2,23.6,98,63,26,30.15,29.98,16,3,17,0.00
2013-3-17,70.5,41.5,23.4,33.8,21.9,-12.8,94,58,4,30.09,30.01,11,2,13,0.00
2013-3-18,65.1,41.3,22.5,32.6,22.1,-11.1,95,59,4,30.12,29.98,10,2,15,0.00
2013-3-19,64.4,45.6,36.0,41.2,35.8,28.1,97,71,40,30.15,30.01,9,2,15,0.04
2013-3-20,51.8,43.0,37.0,45.7,38.5,32.6,98,85,60,30.04,29.92,14,3,22,0.84
2013-3-21,60.4,41.2,26.8,37.4,30.7,23.4,98,70,37,30.06,29.95,18,2,24,0.00
2013-3-22,60.4,33.9,18.1,23.4,11.5,-10.4,94,55,6,30.15,29.98,8,2,10,0.00
2013-3-23,65.7,37.6,19.6,28.1,17.2,-11.2,82,54,4,30.18,29.98,11,2,13,0.00
2013-3-24,70.7,41.2,23.9,39.4,28.1,21.4,97,65,28,30.15,29.98,12,3,19,0.00
2013-3-25,71.4,43.1,25.0,38.4,26.4,-12.3,98,62,4,30.04,29.92,21,4,27,0.00
2013-3-26,62.2,42.6,28.9,41.8,32.1,23.6,93,69,45,29.98,29.92,14,2,17,0.00
2013-3-27,62.8,43.5,30.2,39.2,33.9,29.1,98,73,40,30.04,29.92,14,3,20,0.00
2013-3-28,62.8,42.8,33.1,44.4,36.1,32.3,98,81,39,30.15,29.98,14,2,17,0.00
2013-3-29,71.8,44.9,28.0,42.8,34.6,27.4,98,74,25,30.21,30.09,10,2,11,0.00
2013-3-30,76.6,47.6,29.1,44.8,36.7,28.6,98,73,26,30.18,30.01,13,2,20,0.00
2013-3-31,54.3,45.1,37.9,44.7,38.7,33.2,98,81,51,30.09,29.98,10,2,13,0.08
2013-4-1,59.4,44.1,36.3,42.4,36.5,33.1,98,78,45,30.15,30.01,13,3,17,0.00
2013-4-2,70.5,47.5,32.9,43.1,37.1,32.1,98,73,34,30.18,30.06,8,2,10,0.00
2013-4-3,75.6,49.2,31.8,46.9,37.2,31.3,98,70,25,30.18,30.04,12,2,16,0.00
2013-4-4,57.6,45.5,37.9,48.6,40.9,35.6,98,85,59,30.06,29.95,18,2,23,0.21
2013-4-5,62.4,47.2,35.6,39.6,34.2,30.2,96,63,38,30.12,30.04,15,3,19,0.00
2013-4-6,61.0,46.8,37.6,40.1,35.4,30.8,94,67,45,30.15,30.04,15,3,20,0.00
2013-4-7,58.5,46.7,37.0,40.2,34.9,29.1,96,65,44,30.09,29.68,21,7,27,0.21
2013-4-8,54.0,40.2,32.7,36.4,29.4,23.0,98,69,38,30.09,29.68,7,2,8,0.08
2013-4-9,66.6,43.7,26.1,32.2,22.0,-10.7,89,51,4,30.24,30.04,12,2,17,0.00
2013-4-10,79.7,50.4,26.1,45.4,33.2,23.8,95,58,21,30.30,30.04,13,3,15,0.00
2013-4-11,74.3,51.0,34.9,43.5,28.8,-17.7,98,56,2,30.12,29.92,10,2,13,0.04
2013-4-12,74.1,47.5,25.9,38.4,30.7,-12.3,95,60,3,30.04,29.86,13,2,17,0.00
2013-4-13,63.1,47.6,32.2,40.8,30.7,19.6,96,57,27,29.92,29.80,26,7,33,0.00
2013-4-14,63.7,43.2,26.1,37.6,29.2,21.6,97,62,25,29.89,29.74,21,6,24,0.00
2013-4-15,49.3,38.9,30.6,32.7,26.9,19.7,98,64,38,29.89,29.74,19,4,23,0.00
2013-4-16,57.2,36.0,23.7,30.3,24.3,19.1,97,66,25,30.15,29.89,7,1,10,0.00
2013-4-17,61.9,38.0,17.8,24.0,9.1,-9.6,91,46,5,30.27,30.15,10,2,13,0.00
2013-4-18,70.3,42.2,20.8,30.6,19.1,-12.9,80,49,4,30.30,30.21,10,2,12,0.00
2013-4-19,71.4,46.5,26.1,41.0,31.7,21.6,90,61,33,30.30,30.09,17,4,26,0.00
2013-4-20,74.8,49.0,28.0,38.4,23.3,-18.0,96,56,2,30.24,30.06,8,3,11,0.00
2013-4-21,82.8,52.2,27.1,41.1,27.9,-17.7,96,55,2,30.18,30.04,8,2,11,0.00
2013-4-22,79.5,52.6,31.1,42.4,24.1,-18.0,98,51,2,30.18,30.01,10,2,13,0.00
2013-4-23,74.5,47.7,26.2,36.5,13.0,-18.0,80,41,2,30.18,29.95,9,2,11,0.00
2013-4-24,73.9,47.7,25.0,27.8,9.5,-18.0,86,40,2,30.12,29.98,13,2,21,0.00
2013-4-25,83.5,49.5,24.4,35.3,18.2,-18.0,81,44,2,30.15,30.01,14,3,17,0.00
2013-4-26,85.8,56.8,30.0,45.6,30.3,-15.8,98,55,2,30.30,30.15,13,3,15,0.00
2013-4-27,84.6,55.5,33.1,49.2,30.0,-16.9,98,56,2,30.33,30.15,12,3,16,0.00
2013-4-28,88.3,57.1,31.8,48.3,34.7,-13.0,97,58,2,30.21,30.04,8,2,9,0.00
2013-4-29,88.7,58.0,35.6,48.5,40.4,35.1,98,60,19,30.12,29.86,14,3,17,0.00
2013-4-30,81.7,56.3,36.0,41.4,17.1,-17.9,93,37,2,30.12,29.92,8,2,9,0.00
2013-5-1,74.7,49.9,29.1,34.4,3.6,-13.0,58,24,3,30.39,30.12,11,3,14,0.00
2013-5-2,86.5,53.3,25.9,41.3,12.4,-18.0,81,38,2,30.39,30.21,3,3,3,0.00
2013-5-3,91.0,59.9,32.5,46.4,18.0,-16.8,97,45,2,30.24,29.98,3,3,3,0.00
2013-5-4,77.4,50.1,31.1,38.6,30.5,2.1,88,53,6,30.09,29.77,3,3,3,0.00
2013-5-5,68.2,47.3,31.8,47.1,39.4,31.1,98,77,39,29.92,29.74,3,3,3,0.17
2013-5-6,63.1,49.8,42.1,49.1,43.5,36.1,98,82,45,29.95,29.83,2,2,2,0.11
2013-5-7,55.0,46.8,40.5,48.0,43.7,39.7,98,89,71,30.04,29.92,2,2,2,0.08
2013-5-8,74.7,59.7,46.6,51.8,44.9,34.4,98,64,23,30.12,29.98,2,2,2,0.06
2013-5-9,74.7,74.7,74.7,34.4,34.4,34.4,23,23,23,30.21,30.09,9,2,11,0.00
2013-5-10,74.7,74.7,74.7,34.4,34.4,34.4,23,23,23,30.27,30.15,9,2,10,0.00
2013-5-11,74.7,74.7,74.7,34.4,34.4,34.4,23,23,23,30.27,30.15,13,2,17,0.00
2013-5-12,74.7,71.3,46.0,41.5,35.2,34.4,78,29,23,30.27,30.15,15,3,21,0.00
2013-5-13,83.5,58.9,36.3,50.2,21.0,-17.9,96,47,2,30.18,30.18,3,3,3,0.00
2013-5-14,84.0,48.3,35.6,50.3,38.5,34.2,96,75,23,30.18,30.18,3,3,3,0.00
2013-5-15,83.8,63.3,44.6,51.8,38.5,8.5,98,45,9,30.18,30.18,18,6,27,0.00
2013-5-16,61.2,50.1,41.0,44.6,41.1,36.1,96,73,48,30.18,30.18,14,2,19,0.00
2013-5-17,68.2,52.2,38.8,45.2,38.0,32.6,98,63,34,30.18,30.18,17,4,23,0.00
2013-5-18,75.9,50.6,30.2,46.1,36.2,28.9,98,64,33,30.18,30.18,14,3,20,0.00
2013-5-19,82.8,53.3,32.5,44.5,27.2,-18.0,98,54,2,30.18,30.18,9,2,12,0.00
2013-5-20,87.1,57.7,33.4,40.6,31.7,-14.6,82,47,2,30.18,30.18,11,2,13,0.00
2013-5-21,71.1,54.4,37.6,42.0,34.6,25.2,94,53,24,30.18,30.18,26,6,35,0.00
2013-5-22,70.0,47.7,30.2,32.6,15.9,-13.0,72,35,3,30.18,30.18,15,3,19,0.00
2013-5-23,64.2,42.8,23.9,34.8,25.3,15.2,81,53,28,30.18,30.18,13,3,15,0.00
2013-5-24,75.4,48.5,24.6,35.9,18.6,-17.7,96,48,2,30.18,30.18,16,3,19,0.00
2013-5-25,75.2,50.7,29.3,39.8,31.6,23.5,92,54,22,30.18,30.18,17,4,20,0.00
2013-5-26,68.9,49.8,30.4,40.8,34.3,28.3,96,60,33,30.18,30.18,17,4,24,0.00
2013-5-27,61.0,46.3,31.3,46.7,38.9,30.3,98,78,48,30.18,30.18,14,2,21,0.00
2013-5-28,68.4,54.5,44.8,47.1,43.1,38.7,98,69,40,30.18,30.18,9,2,13,0.04
2013-5-29,68.7,55.5,42.4,44.8,40.3,36.5,95,60,35,30.18,30.18,14,5,21,0.00
2013-5-30,76.8,53.4,31.5,45.0,35.7,-17.8,98,60,2,30.18,30.18,13,3,17,0.00
2013-5-31,91.8,58.9,31.3,43.5,21.4,-16.9,95,47,2,30.18,30.18,7,2,10,0.00
2013-6-1,93.9,63.4,33.4,45.6,29.7,-13.3,88,43,2,30.18,30.18,10,2,12,0.00
2013-6-2,90.7,63.4,38.8,51.9,43.2,36.9,96,56,19,30.18,30.18,12,2,15,0.00
2013-6-3,96.6,65.4,38.1,49.5,29.8,-12.6,94,48,2,30.18,30.18,8,2,10,0.00
2013-6-4,101.1,67.6,38.8,52.0,33.0,-11.2,94,50,2,30.18,30.18,7,3,9,0.00
2013-6-5,101.7,69.3,41.2,52.3,34.6,-9.9,91,49,2,30.18,30.18,8,3,10,0.00
2013-6-6,96.3,63.0,43.7,46.5,41.3,-8.6,91,57,2,30.18,30.18,10,2,13,0.00
2013-6-7,104.7,71.7,43.2,57.1,35.2,-8.1,85,45,2,30.18,30.18,8,2,10,0.00
2013-6-8,106.5,74.7,48.7,57.2,42.4,-6.3,88,48,2,30.18,30.18,7,1,10,0.00
2013-6-9,109.2,73.2,48.0,59.6,50.3,43.0,84,52,11,30.18,30.18,9,2,11,0.00
2013-6-10,80.1,65.4,51.6,58.3,49.3,37.6,94,59,37,30.18,30.18,13,3,18,0.00
2013-6-11,79.3,60.9,42.4,49.3,41.5,37.6,85,54,27,30.18,30.18,18,4,24,0.00
2013-6-12,80.8,58.4,39.4,50.9,31.6,-18.0,96,49,2,30.18,30.18,22,4,30,0.00
2013-6-13,76.8,54.9,34.2,43.4,28.3,-17.8,87,46,2,30.18,30.18,12,3,17,0.00
2013-6-14,84.9,58.1,32.7,41.4,27.2,-17.3,79,43,2,30.18,30.18,7,2,9,0.00
2013-6-15,88.9,59.8,35.1,47.7,25.9,-14.8,79,42,2,30.18,30.18,13,2,21,0.00
2013-6-16,85.5,59.4,34.7,49.1,33.4,-13.8,79,45,2,30.18,30.18,12,2,15,0.00
2013-6-17,85.1,59.3,35.6,48.2,33.7,-15.3,86,47,2,30.18,30.18,14,3,18,0.00
2013-6-18,73.6,55.0,36.3,45.0,35.0,14.4,87,52,12,30.18,30.18,26,5,32,0.00
2013-6-19,71.6,55.3,40.3,41.1,34.5,28.9,73,48,28,30.18,30.18,11,3,16,0.00
2013-6-20,84.2,54.0,30.6,44.8,33.8,26.2,87,52,22,30.18,30.18,11,2,15,0.00
2013-6-21,87.3,58.6,33.4,44.4,29.4,-15.4,86,48,2,30.18,30.18,9,2,12,0.00
2013-6-22,90.7,61.3,36.1,49.7,38.6,30.8,83,49,20,30.18,30.18,12,2,15,0.00
2013-6-23,76.5,56.0,38.1,49.9,40.6,33.0,84,58,35,30.18,30.18,20,2,25,0.00
2013-6-24,63.7,55.5,50.4,51.7,47.0,43.1,95,74,56,30.18,30.18,10,2,13,0.00
2013-6-25,63.5,56.1,49.5,61.1,53.9,48.8,98,93,76,30.18,30.18,8,1,12,0.00
2013-6-26,85.5,66.1,52.5,58.5,53.8,49.5,98,69,38,30.18,30.18,17,3,21,0.00
2013-6-27,97.2,68.4,45.5,59.8,51.0,43.9,98,63,24,30.18,30.18,7,1,10,0.00
2013-6-28,101.3,72.1,47.3,60.3,53.1,45.4,95,59,23,30.18,30.18,9,2,11,0.00
2013-6-29,102.9,73.8,50.5,62.4,51.9,-5.3,97,58,2,30.18,30.18,8,2,11,0.00
2013-6-30,104.2,74.0,50.2,62.7,53.7,47.5,94,57,21,30.18,30.18,14,2,18,0.00
2013-7-1,103.6,76.6,55.2,62.3,52.6,-3.2,90,53,2,30.18,30.18,10,2,12,0.00
2013-7-2,104.5,74.0,56.8,62.5,57.4,52.4,91,62,21,30.18,30.18,7,1,9,0.00
2013-7-3,105.3,74.4,52.2,65.1,56.8,-13.5,96,64,2,30.18,30.18,7,2,8,0.00
2013-7-4,98.1,71.7,54.9,67.6,57.8,49.5,97,68,29,30.18,30.18,10,2,13,0.00
2013-7-5,93.4,69.4,50.9,60.6,45.7,-2.0,95,53,5,30.18,30.18,13,2,20,0.00
2013-7-6,89.8,64.1,40.8,54.6,28.2,-18.0,90,44,2,30.18,30.18,0,0,2,0.00
2013-7-7,90.1,63.9,38.3,49.9,38.5,9.1,88,48,6,30.18,30.18,0,0,2,0.00
2013-7-8,93.6,67.1,41.4,55.2,30.3,-12.7,90,43,2,30.18,30.18,13,2,20,0.00
2013-7-9,85.6,69.4,50.4,45.4,33.5,-13.3,74,35,2,30.18,30.18,15,3,22,0.00
2013-7-10,95.4,64.9,40.3,53.5,26.8,-13.8,92,45,2,30.18,30.18,19,3,24,0.00
2013-7-11,89.6,64.5,43.0,52.4,20.7,-18.0,93,41,2,30.18,30.18,17,4,30,0.00
2013-7-12,86.2,61.1,36.7,45.6,25.0,-18.0,79,40,2,30.18,30.18,16,4,23,0.00
2013-7-13,92.3,61.6,34.5,44.1,21.9,-14.6,82,39,2,30.18,30.18,13,3,18,0.00
2013-7-14,90.1,64.7,39.9,51.4,40.3,9.3,87,49,5,30.18,30.18,15,3,21,0.00
2013-7-15,91.6,65.1,44.6,53.4,44.5,39.1,86,53,20,30.18,30.18,15,2,18,0.00
2013-7-16,88.0,64.6,47.3,51.5,30.2,-16.3,85,42,2,30.18,30.18,18,3,23,0.00
2013-7-17,91.2,62.5,35.1,45.8,27.5,-14.1,86,43,2,30.18,30.18,11,2,15,0.00
2013-7-18,93.9,66.4,39.0,51.7,41.4,12.1,86,48,11,30.18,30.18,12,2,15,0.00
2013-7-19,97.5,70.6,44.1,55.5,44.2,24.8,89,48,12,30.18,30.18,12,2,17,0.00
2013-7-20,104.7,74.0,48.7,58.9,49.6,27.6,90,50,9,30.18,30.18,10,2,13,0.00
2013-7-21,98.6,74.3,50.0,60.3,47.9,-6.0,93,52,2,30.18,30.18,12,3,17,0.00
2013-7-22,94.8,71.7,50.2,57.1,49.5,40.5,89,51,23,30.18,30.18,12,3,15,0.00
2013-7-23,91.4,69.8,50.4,56.3,48.1,42.5,86,50,22,30.18,30.18,10,2,15,0.00
2013-7-24,93.4,72.5,54.7,58.1,53.2,49.6,86,55,29,30.18,30.18,12,3,14,0.00
2013-7-25,99.0,70.4,51.1,61.0,54.6,48.5,94,64,29,30.18,30.18,13,2,20,0.00
2013-7-26,93.2,72.1,56.1,60.5,53.1,43.0,94,58,28,30.18,30.18,13,3,17,0.00
2013-7-27,93.6,69.1,46.8,56.5,46.5,38.8,87,50,19,30.18,30.18,14,3,20,0.00
2013-7-28,95.0,67.8,47.5,58.8,46.2,40.3,93,53,21,30.18,30.18,14,3,20,0.00
2013-7-29,85.6,62.4,42.1,52.3,27.4,-18.0,88,44,2,30.18,30.18,17,3,24,0.00
2013-7-30,91.2,61.9,35.8,49.4,30.8,-14.7,77,41,2,30.18,30.18,14,3,20,0.00
2013-7-31,87.1,65.4,49.5,53.7,43.2,38.2,79,49,22,30.18,30.18,16,3,20,0.00
2013-8-1,79.9,58.0,36.0,47.5,14.5,-18.0,85,39,2,30.18,30.18,19,4,25,0.00
2013-8-2,84.6,59.2,34.2,45.5,21.1,-16.7,82,40,2,30.18,30.18,12,3,16,0.00
2013-8-3,85.8,61.1,36.5,48.1,36.9,-0.5,88,48,14,30.18,30.18,13,3,20,0.00
2013-8-4,89.8,63.1,38.8,50.3,38.8,11.6,85,48,7,30.18,30.18,14,3,19,0.00
2013-8-5,82.9,49.6,38.7,48.3,39.0,34.0,89,72,30,30.18,30.18,3,1,3,0.00
2013-8-6,89.1,72.6,38.8,49.7,29.8,-13.8,89,30,2,30.18,30.18,17,4,21,0.00
2013-8-7,82.4,64.4,46.8,47.6,41.0,34.3,67,45,25,30.18,30.18,16,4,20,0.00
2013-8-8,78.3,59.0,39.7,45.5,39.6,34.1,85,53,31,30.18,30.18,13,3,23,0.00
2013-8-9,79.2,59.4,41.2,46.5,39.3,33.7,86,52,22,30.18,30.18,16,6,21,0.00
2013-8-10,78.6,57.1,36.0,46.7,37.0,15.7,92,53,11,30.18,30.18,13,13,19,0.00
2013-8-11,82.6,58.7,35.2,45.8,37.5,23.2,92,53,13,30.18,30.18,13,13,19,0.00
2013-8-12,84.6,60.4,36.7,48.6,40.2,33.2,91,54,20,30.18,30.18,13,13,19,0.00
2013-8-13,86.0,61.2,37.6,48.0,36.2,-13.3,92,51,2,30.18,30.18,13,13,19,0.00
2013-8-14,90.0,62.0,37.0,49.7,28.1,-13.0,87,45,2,30.18,30.18,13,6,19,0.00
2013-8-15,88.7,61.3,37.2,46.4,18.4,-17.9,84,39,2,30.18,30.18,15,3,17,0.00
2013-8-16,89.1,60.7,34.5,43.2,19.8,-14.8,83,40,2,30.18,30.18,15,3,22,0.00
2013-8-17,92.7,64.1,39.0,47.1,28.0,-12.5,88,44,2,30.18,30.18,11,2,14,0.00
2013-8-18,97.7,65.9,45.1,64.1,45.6,-8.5,92,59,2,30.18,30.18,13,2,17,0.12
2013-8-19,87.4,64.7,50.5,60.8,53.6,48.0,95,72,30,30.18,30.18,12,1,13,0.00
2013-8-20,90.5,70.1,56.3,64.2,52.9,45.0,96,61,28,30.18,30.18,8,2,12,0.00
2013-8-21,92.3,63.9,37.8,58.3,52.5,30.9,98,72,28,30.18,30.18,8,2,12,0.58
2013-8-22,82.6,62.8,47.5,62.0,46.4,30.3,98,64,18,30.18,30.18,13,2,17,0.00
2013-8-23,82.9,58.4,38.5,49.5,36.3,-15.6,94,56,2,30.18,30.18,13,3,19,0.00
2013-8-24,79.2,57.1,36.7,48.9,39.0,33.2,90,57,23,30.18,30.18,16,3,25,0.00
2013-8-25,76.8,57.9,40.8,49.1,42.6,37.6,91,61,33,30.18,30.18,18,3,28,0.00
2013-8-26,81.9,59.4,41.9,58.3,43.0,39.5,96,62,29,30.18,30.18,15,3,22,0.00
2013-8-27,84.2,59.9,38.7,49.1,42.9,36.5,94,60,29,30.18,30.18,14,3,17,0.00
2013-8-28,86.2,61.7,42.4,53.9,44.9,39.5,93,60,29,30.18,30.18,15,3,20,0.00
2013-8-29,83.5,60.7,40.8,53.8,42.6,36.7,97,59,23,30.18,30.18,18,3,25,0.00
2013-8-30,89.1,61.3,37.4,48.6,27.9,-13.8,93,50,2,30.18,30.18,12,3,19,0.00
2013-8-31,88.5,62.5,39.4,48.2,39.9,30.3,88,52,18,30.18,30.18,16,3,24,0.00
2013-9-1,84.9,66.3,54.9,55.5,48.2,41.8,75,54,33,30.18,30.18,11,2,13,0.00
2013-9-2,72.5,60.4,56.1,65.3,57.3,47.4,98,91,41,30.18,30.18,8,1,10,1.08
2013-9-3,79.7,64.0,53.2,67.1,55.3,50.6,98,77,42,30.18,30.18,16,3,18,0.00
2013-9-4,81.9,62.2,46.8,64.4,51.2,46.2,98,73,37,30.18,30.18,15,3,18,0.00
2013-9-5,77.0,58.9,43.9,56.9,42.0,20.4,98,62,16,30.18,30.18,19,4,26,0.00
2013-9-6,84.6,56.1,35.1,48.0,40.7,33.2,96,64,22,30.18,30.18,9,2,13,0.00
2013-9-7,83.7,58.5,39.0,49.7,43.2,36.1,97,65,20,30.18,30.18,13,2,17,0.00
2013-9-8,86.4,58.9,37.6,49.5,36.0,-13.3,96,58,2,30.18,30.18,13,2,18,0.00
2013-9-9,90.5,61.1,39.4,48.2,40.6,19.5,95,56,8,30.18,30.18,2,2,2,0.00
2013-9-10,90.3,58.9,38.5,46.2,34.1,-11.8,88,55,2,30.18,30.18,2,2,2,0.00
2013-9-11,87.1,59.6,40.3,51.3,43.8,36.0,90,62,22,30.18,30.18,2,2,2,0.00
2013-9-12,85.5,60.2,44.4,59.6,49.6,41.0,96,73,32,30.18,30.18,2,2,2,0.00
2013-9-13,83.1,60.6,47.3,59.1,51.9,46.8,98,78,32,30.18,30.18,9,1,9,0.00
2013-9-14,85.1,61.8,44.4,63.0,49.6,43.6,98,71,30,30.18,30.18,12,2,16,0.00
2013-9-15,82.4,58.9,42.3,52.2,40.9,26.6,97,60,21,30.18,30.18,19,3,24,0.00
2013-9-16,80.8,55.0,34.2,47.6,37.5,29.4,89,57,25,30.18,30.18,18,3,22,0.00
2013-9-17,70.9,54.5,41.0,42.0,36.4,-4.6,91,57,15,30.18,30.18,20,5,30,0.00
2013-9-18,78.1,51.4,33.3,42.2,35.0,-17.8,96,61,2,30.18,30.18,8,2,11,0.00
2013-9-19,84.7,53.2,31.6,41.4,29.5,-15.9,88,53,2,30.18,30.18,9,2,13,0.00
2013-9-20,74.7,52.4,31.8,41.7,31.9,-10.5,86,53,4,30.18,30.18,17,4,26,0.00
2013-9-21,57.4,50.1,41.7,48.5,41.9,35.6,96,75,47,30.18,30.18,21,4,29,0.00
2013-9-22,66.6,48.7,37.8,43.5,39.9,34.8,98,76,41,30.18,30.18,11,2,18,0.00
2013-9-23,74.7,49.5,33.4,48.5,37.6,30.9,98,71,24,30.18,30.18,12,2,15,0.00
2013-9-24,67.1,52.5,36.1,42.7,37.4,34.0,98,61,35,30.18,30.18,21,6,34,0.00
2013-9-25,55.8,42.4,33.6,43.5,35.7,28.6,98,80,44,30.18,30.18,12,2,15,0.00
2013-9-26,58.3,40.6,29.5,40.6,31.6,24.1,98,74,39,30.18,30.18,2,2,2,0.00
2013-9-27,68.4,40.0,24.3,36.5,28.1,21.2,94,68,23,30.18,30.18,6,2,10,0.68
2013-9-28,71.4,49.5,28.9,42.1,32.8,25.9,92,58,32,30.18,30.18,15,3,23,0.00
2013-9-29,64.4,58.0,52.5,43.5,36.4,29.5,63,45,38,30.18,30.18,23,7,36,0.00
2013-9-30,67.5,55.4,39.2,50.3,43.4,37.3,94,65,48,30.18,30.18,17,5,24,0.00
2013-10-1,68.9,48.8,35.8,51.1,38.2,32.0,98,73,33,30.18,30.18,18,3,23,0.00
2013-10-2,65.7,45.7,30.6,40.5,30.6,23.7,96,62,26,30.18,30.18,17,4,24,0.00
2013-10-3,62.1,40.4,23.9,30.7,20.6,-9.4,85,52,5,30.18,30.18,13,2,19,0.00
2013-10-4,63.0,45.6,31.5,29.5,17.5,-9.5,52,37,5,30.18,30.18,15,4,23,0.00
2013-10-5,74.8,44.8,24.4,29.3,14.7,-18.0,70,42,2,30.18,30.18,8,2,11,0.00
2013-10-6,77.9,46.1,25.0,35.3,15.6,-18.0,74,44,2,30.18,30.18,11,2,14,0.00
2013-10-7,72.7,45.1,25.0,37.3,16.1,-13.0,74,45,3,30.18,30.18,14,2,19,0.00
2013-10-8,65.7,44.2,23.9,35.3,25.6,15.2,74,51,26,30.18,30.18,11,2,14,0.00
2013-10-9,54.5,43.3,32.5,38.1,31.3,25.8,89,64,45,30.18,30.18,5,1,8,0.00
2013-10-10,64.4,41.9,27.1,37.8,30.9,24.6,93,69,36,30.18,30.18,14,2,21,0.00
2013-10-11,66.6,42.8,24.3,39.0,30.5,21.8,97,67,33,30.18,30.18,12,2,15,0.00
2013-10-12,62.4,42.3,24.4,38.8,30.5,22.2,97,67,35,30.18,30.18,16,3,22,0.00
2013-10-13,63.9,41.7,29.5,42.0,34.5,26.6,97,79,39,30.18,30.18,10,1,12,0.22
2013-10-14,67.1,40.3,24.4,40.0,28.7,22.2,97,69,28,30.18,30.18,8,2,10,0.00
2013-10-15,68.2,39.6,23.5,36.6,24.4,16.2,92,61,15,30.18,30.18,10,2,16,0.00
2013-10-16,68.9,39.7,21.2,38.1,25.9,15.6,81,62,29,30.18,30.18,9,1,12,0.00
2013-10-17,72.0,42.0,23.5,37.7,22.8,-13.0,92,59,3,30.18,30.18,6,1,8,0.00
2013-10-18,75.4,43.5,23.7,38.3,23.9,-17.9,86,55,3,30.18,30.18,7,1,8,0.00
2013-10-19,77.2,44.0,23.7,39.2,27.0,15.7,82,57,13,30.18,30.18,6,1,8,0.00
2013-10-20,76.8,45.0,25.5,40.5,22.7,-17.8,90,56,2,30.18,30.18,7,1,8,0.00
2013-10-21,77.2,45.6,25.7,35.9,18.4,-18.0,75,48,2,30.18,30.18,7,1,10,0.00
2013-10-22,77.5,44.7,25.3,38.4,19.6,-17.5,79,52,2,30.18,30.18,7,1,9,0.00
2013-10-23,76.5,44.6,24.8,38.6,21.2,-18.0,79,51,2,30.18,30.18,6,1,6,0.00
2013-10-24,76.1,44.6,25.2,38.1,17.9,-18.0,80,49,2,30.18,30.18,10,2,12,0.00
2013-10-25,76.1,42.3,22.6,35.5,15.7,-18.0,78,48,2,30.18,30.18,7,1,8,0.00
2013-10-26,75.6,42.9,23.2,33.2,16.5,-18.0,75,47,2,30.18,30.18,6,1,8,0.00
2013-10-27,68.4,43.0,22.6,32.7,18.7,-9.3,78,47,5,30.18,30.18,30,6,46,0.09
2013-10-28,41.2,36.8,33.1,36.1,32.0,25.8,94,83,62,30.18,30.18,5,1,6,0.00
2013-10-29,44.8,40.4,35.6,36.5,34.7,31.6,94,80,71,30.18,30.18,6,2,8,0.00
2013-10-30,58.1,36.6,23.2,38.4,29.6,21.0,95,78,45,30.18,30.18,7,1,9,0.00
2013-10-31,65.3,37.9,22.6,36.5,28.7,20.7,95,75,34,30.18,30.18,9,2,12,0.00
2013-11-1,68.2,39.6,23.5,41.4,30.4,21.5,94,75,34,30.18,30.18,5,1,6,0.00
2013-11-2,63.1,37.2,22.5,37.3,28.8,20.7,97,77,29,30.18,30.18,18,3,19,0.00
2013-11-3,50.4,39.3,27.3,35.3,21.3,11.6,72,50,31,30.18,30.18,8,2,10,0.00
2013-11-4,55.6,32.3,18.5,25.9,15.1,9.4,73,51,26,30.18,30.18,12,2,16,0.00
2013-11-5,61.0,34.0,17.4,29.7,18.8,9.6,78,57,26,30.33,30.15,5,1,6,0.00
2013-11-6,66.4,39.2,24.1,39.2,27.1,17.0,83,65,33,30.36,30.21,6,1,7,0.00
2013-11-7,71.1,45.5,29.7,37.7,16.9,-13.0,95,50,3,30.27,30.09,22,4,28,0.00
2013-11-8,66.0,41.3,24.4,38.1,26.1,15.9,86,57,35,30.15,29.98,15,2,18,0.00
2013-11-9,69.1,38.8,22.6,39.5,27.1,19.9,91,68,23,30.18,30.04,9,1,10,0.00
2013-11-10,71.4,38.5,21.9,39.4,18.2,-13.0,89,57,3,30.21,30.09,11,1,14,0.00
2013-11-11,74.8,43.4,25.0,34.2,19.2,-17.9,68,47,2,30.27,30.15,6,1,7,0.00
2013-11-12,71.1,48.8,36.0,40.3,30.7,25.3,69,51,27,30.36,30.24,9,1,10,0.00
2013-11-13,72.9,43.3,26.8,38.5,27.5,20.9,82,57,26,30.36,30.21,9,2,11,0.00
2013-11-14,70.5,41.8,22.3,41.6,25.1,11.2,88,57,14,30.24,29.86,16,3,23,0.00
2013-11-15,58.5,39.4,25.3,31.6,22.7,15.2,67,53,28,29.92,29.74,10,2,14,0.00
2013-11-16,56.7,43.1,24.4,29.7,22.9,15.3,74,46,36,29.95,29.71,17,5,24,0.00
2013-11-17,62.2,35.0,19.0,34.4,24.1,14.9,88,68,35,30.15,29.92,3,3,3,0.00
2013-11-18,67.1,40.4,20.7,43.6,28.9,17.4,92,67,36,30.12,29.98,3,3,3,0.00
2013-11-19,57.6,44.7,38.8,40.9,37.6,33.4,96,77,50,30.04,29.92,3,3,3,0.00
2013-11-20,51.6,41.9,35.6,48.0,40.3,34.5,98,94,74,29.92,29.80,3,3,3,0.28
2013-11-21,36.3,33.5,29.5,34.8,21.5,10.3,98,64,43,30.24,29.92,12,4,17,0.04
2013-11-22,49.3,36.1,24.4,12.9,0.1,-12.3,45,26,8,30.30,30.15,16,6,19,0.00
2013-11-23,57.2,31.3,19.8,18.2,8.2,-10.9,65,42,6,30.18,30.09,11,2,13,0.00
2013-11-24,56.7,28.2,12.6,27.1,10.4,-9.7,75,55,6,30.27,30.15,9,1,11,0.00
2013-11-25,61.0,31.1,16.7,28.7,17.6,10.9,82,61,17,30.36,30.24,6,1,6,0.00
2013-11-26,60.4,34.1,19.9,33.9,22.9,15.2,85,66,35,30.30,30.12,6,1,6,0.00
2013-11-27,59.4,35.1,23.4,34.8,25.3,20.1,88,70,35,30.12,29.92,5,1,6,0.00
2013-11-28,54.7,33.1,23.4,33.7,25.8,20.4,91,76,42,30.15,29.98,7,1,9,0.00
2013-11-29,59.4,33.2,20.8,34.7,25.0,18.5,92,75,38,30.27,30.15,8,2,10,0.00
2013-11-30,61.5,33.6,21.4,35.7,24.7,18.4,92,73,35,30.33,30.18,6,1,8,0.00
2013-12-1,61.5,33.8,19.2,39.4,26.0,16.0,91,76,38,30.39,30.27,6,1,6,0.00
2013-12-2,59.4,39.5,21.6,36.7,26.8,19.3,96,66,27,30.27,29.80,26,6,34,0.07
2013-12-3,45.3,29.2,9.1,37.2,22.5,5.3,90,76,57,29.86,29.68,23,3,29,0.00
2013-12-4,38.1,15.1,3.2,18.0,6.4,-3.3,84,70,43,30.01,29.86,9,2,11,0.00
2013-12-5,36.1,13.1,-0.6,15.2,2.5,-6.4,73,63,41,30.06,29.92,5,1,6,0.00
2013-12-6,35.2,18.6,1.8,25.3,8.7,-7.0,94,66,41,30.04,29.68,15,2,24,0.00
2013-12-7,34.5,22.3,7.5,24.2,13.4,0.8,92,70,42,30.06,29.68,14,3,15,0.00
2013-12-8,36.9,5.6,-10.3,17.0,-4.1,-14.6,74,63,40,30.30,30.04,10,2,12,0.00
2013-12-9,39.4,6.9,-10.1,15.1,-4.3,-18.4,70,58,34,30.42,30.27,9,2,12,0.00
2013-12-10,46.8,16.3,-4.4,23.0,5.9,-10.5,83,64,39,30.42,30.21,6,1,8,0.00
2013-12-11,46.6,17.7,4.1,23.7,9.5,-0.6,81,72,38,30.33,30.24,4,1,5,0.00
2013-12-12,50.7,19.7,2.1,28.1,12.0,-2.1,90,74,37,30.33,30.15,5,1,9,0.00
2013-12-13,53.8,23.8,5.9,33.0,14.8,2.6,88,72,27,30.42,30.21,10,2,11,0.10
2013-12-14,51.4,24.8,10.2,30.0,16.5,6.4,87,73,39,30.51,30.39,5,1,6,0.08
2013-12-15,53.6,26.1,11.3,29.8,18.1,7.4,89,74,38,30.51,30.33,4,1,5,0.21
2013-12-16,55.4,27.6,13.3,36.4,19.4,9.4,90,74,37,30.42,30.27,4,1,6,0.03
2013-12-17,51.8,29.2,17.8,29.9,22.0,14.6,89,77,40,30.36,30.15,4,1,6,0.00
2013-12-18,58.6,33.3,19.0,34.7,23.4,16.3,93,70,35,30.18,29.74,9,2,10,0.04
2013-12-19,42.8,31.7,19.6,28.2,18.3,7.5,84,58,41,29.98,29.71,12,3,17,0.00
2013-12-20,45.0,26.3,13.3,18.8,8.7,-10.9,78,53,9,30.06,29.95,10,2,13,0.00
2013-12-21,60.8,32.7,19.8,38.1,22.0,13.9,88,67,37,30.18,29.98,6,1,7,0.00
2013-12-22,57.9,31.3,19.8,36.4,24.4,16.6,93,78,43,30.36,30.18,11,2,13,0.00
2013-12-23,56.3,30.8,19.0,35.9,24.0,16.1,92,78,45,30.42,30.33,4,1,5,0.00
2013-12-24,57.6,31.1,19.2,36.1,24.3,16.3,91,78,41,30.45,30.33,8,2,11,0.00
2013-12-25,54.3,30.0,18.7,33.8,23.2,15.3,93,78,42,30.45,30.33,6,1,7,0.00
2013-12-26,54.5,29.2,16.9,32.0,21.5,13.5,90,76,41,30.42,30.27,4,1,5,0.00
2013-12-27,50.2,27.7,15.8,29.3,20.1,11.8,88,75,40,30.36,30.15,5,1,6,0.00
2013-12-28,53.8,29.1,12.7,25.4,16.5,8.8,87,64,26,30.30,30.15,9,2,10,0.00
2013-12-29,53.6,31.0,18.9,28.9,19.3,12.0,85,64,35,30.33,30.21,7,2,10,0.00
2013-12-30,54.0,30.6,16.9,29.5,21.1,13.2,87,70,37,30.33,30.21,6,1,8,0.00
2013-12-31,60.4,32.9,22.5,32.3,21.0,14.4,86,65,25,30.30,30.18,5,1,6,0.00
2014-1-1,59.5,31.5,17.8,30.6,19.5,13.0,84,65,27,30.33,30.18,6,1,8,0.00
2014-1-2,59.4,32.5,19.2,34.1,22.9,15.7,88,71,35,30.27,30.15,4,1,5,0.00